Time;durP1;ratioP1;P1;durP2;ratioP2;P2;SDS_P1;SDS_P2;PMS_P1;PMS_P2;Temp;Humidity;BMP_temperature;BMP_pressure;BME280_temperature;BME280_humidity;BME280_pressure;Samples;Min_cycle;Max_cycle;Signal;HPM_P1;HPM_P2
2022/08/18 00:00:16;;;;;;;5.57;4.97;;;;;;;;;;4973368;28;20076;-71
2022/08/18 00:02:43;;;;;;;5.78;4.50;;;;;;;;;;4973445;28;20445;-69
2022/08/18 00:05:11;;;;;;;4.97;4.15;;;;;;;;;;4973718;28;20033;-69
2022/08/18 00:07:38;;;;;;;6.40;4.25;;;;;;;;;;4975038;28;20389;-69
2022/08/18 00:10:05;;;;;;;6.35;4.70;;;;;;;;;;4974245;28;20563;-71
2022/08/18 00:12:36;;;;;;;6.30;4.18;;;;;;;;;;4974804;28;20521;-69
2022/08/18 00:15:04;;;;;;;6.32;4.30;;;;;;;;;;4972321;28;20046;-70
2022/08/18 00:17:30;;;;;;;6.13;4.10;;;;;;;;;;4974769;28;20436;-69
2022/08/18 00:19:57;;;;;;;5.72;4.40;;;;;;;;;;4972081;28;20023;-69
2022/08/18 00:22:23;;;;;;;11.18;4.82;;;;;;;;;;4974290;28;20079;-69
2022/08/18 00:24:50;;;;;;;8.68;5.00;;;;;;;;;;4972287;28;20473;-69
2022/08/18 00:27:20;;;;;;;5.90;4.05;;;;;;;;;;4974673;28;20027;-71
2022/08/18 00:29:46;;;;;;;6.43;4.13;;;;;;;;;;4974298;28;20033;-70
2022/08/18 00:32:16;;;;;;;7.60;4.32;;;;;;;;;;4974625;28;20098;-75
2022/08/18 00:34:42;;;;;;;10.85;4.63;;;;;;;;;;4971526;28;20074;-74
2022/08/18 00:37:08;;;;;;;6.78;4.13;;;;;;;;;;4972472;28;20073;-69
2022/08/18 00:39:34;;;;;;;5.55;4.47;;;;;;;;;;4974498;28;20026;-68
2022/08/18 00:42:11;;;;;;;7.22;4.20;;;;;;;;;;4973854;28;20027;-73
2022/08/18 00:44:37;;;;;;;5.60;4.22;;;;;;;;;;4972667;28;20039;-70
2022/08/18 00:47:03;;;;;;;8.20;4.25;;;;;;;;;;4979342;28;20539;-72
2022/08/18 00:49:30;;;;;;;6.50;4.47;;;;;;;;;;4993056;28;20030;-68
2022/08/18 00:51:57;;;;;;;7.60;4.40;;;;;;;;;;4991544;28;20027;-72
2022/08/18 00:54:27;;;;;;;5.25;4.40;;;;;;;;;;5007401;28;20076;-67
2022/08/18 00:56:55;;;;;;;9.60;4.30;;;;;;;;;;4992112;28;20049;-73
2022/08/18 00:59:27;;;;;;;6.75;4.63;;;;;;;;;;4980851;28;20436;-68
2022/08/18 01:01:55;;;;;;;7.20;4.25;;;;;;;;;;4992693;28;20042;-68
2022/08/18 01:04:24;;;;;;;5.82;4.10;;;;;;;;;;4993651;28;20061;-71
2022/08/18 01:06:53;;;;;;;5.55;4.50;;;;;;;;;;4991584;28;20022;-69
2022/08/18 01:09:19;;;;;;;7.35;4.70;;;;;;;;;;4993277;28;20472;-68
2022/08/18 01:11:46;;;;;;;7.47;4.97;;;;;;;;;;4993458;28;20436;-69
2022/08/18 01:14:14;;;;;;;7.10;4.38;;;;;;;;;;4993065;28;20058;-68
2022/08/18 01:22:35;;;;;;;7.65;4.65;;;;;;;;;;4991667;28;20040;-68
2022/08/18 01:27:46;;;;;;;5.78;4.60;;;;;;;;;;4983478;28;20061;-69
2022/08/18 01:30:14;;;;;;;6.70;4.07;;;;;;;;;;4992682;28;20023;-68
2022/08/18 01:32:40;;;;;;;7.18;4.40;;;;;;;;;;4991757;28;20022;-68
2022/08/18 01:35:10;;;;;;;5.72;4.13;;;;;;;;;;4992509;28;20408;-67
2022/08/18 01:37:36;;;;;;;8.13;4.93;;;;;;;;;;4992468;28;20042;-71
2022/08/18 01:40:05;;;;;;;6.47;4.32;;;;;;;;;;4992902;28;20416;-68
2022/08/18 01:42:31;;;;;;;5.85;4.28;;;;;;;;;;4979294;28;20034;-67
2022/08/18 01:44:57;;;;;;;6.28;4.32;;;;;;;;;;4991485;28;20057;-68
2022/08/18 01:47:23;;;;;;;7.80;4.72;;;;;;;;;;4993717;28;20168;-68
2022/08/18 01:49:52;;;;;;;5.85;4.43;;;;;;;;;;4996646;28;20081;-72
2022/08/18 01:52:20;;;;;;;7.57;4.35;;;;;;;;;;5006042;28;20391;-68
2022/08/18 01:54:47;;;;;;;4.93;4.22;;;;;;;;;;4995400;28;20014;-68
2022/08/18 01:57:13;;;;;;;7.45;4.22;;;;;;;;;;5003928;28;20034;-68
2022/08/18 01:59:40;;;;;;;7.90;4.47;;;;;;;;;;5000192;28;20097;-68
2022/08/18 02:02:06;;;;;;;6.70;4.93;;;;;;;;;;5001276;28;20053;-68
2022/08/18 02:04:33;;;;;;;7.72;5.15;;;;;;;;;;5008156;28;20025;-69
2022/08/18 02:07:01;;;;;;;5.43;4.63;;;;;;;;;;5004873;28;20022;-66
2022/08/18 02:09:27;;;;;;;6.80;4.70;;;;;;;;;;5003526;28;20042;-68
2022/08/18 02:11:53;;;;;;;5.22;4.20;;;;;;;;;;5012203;28;20052;-67
2022/08/18 02:14:19;;;;;;;9.77;4.65;;;;;;;;;;4999122;28;20360;-67
2022/08/18 02:16:46;;;;;;;6.93;4.70;;;;;;;;;;5006760;28;20026;-67
2022/08/18 02:19:12;;;;;;;5.13;4.25;;;;;;;;;;5012413;28;20029;-68
2022/08/18 02:21:38;;;;;;;5.55;4.60;;;;;;;;;;4994356;28;20034;-68
2022/08/18 02:24:04;;;;;;;6.82;4.40;;;;;;;;;;5013949;28;20026;-68
2022/08/18 02:26:30;;;;;;;6.75;4.82;;;;;;;;;;5015951;28;20192;-69
2022/08/18 02:28:56;;;;;;;5.25;4.68;;;;;;;;;;5002258;28;20021;-72
2022/08/18 02:31:24;;;;;;;6.30;4.55;;;;;;;;;;5003737;28;20061;-72
2022/08/18 02:33:50;;;;;;;5.07;4.47;;;;;;;;;;5012643;28;20024;-68
2022/08/18 02:36:16;;;;;;;5.75;4.95;;;;;;;;;;4999223;28;20049;-68
2022/08/18 02:38:43;;;;;;;6.07;4.53;;;;;;;;;;5001854;28;20105;-67
2022/08/18 02:41:10;;;;;;;8.35;4.75;;;;;;;;;;4993509;28;20448;-71
2022/08/18 02:43:37;;;;;;;7.35;4.35;;;;;;;;;;5010541;28;20026;-71
2022/08/18 02:46:04;;;;;;;7.47;4.68;;;;;;;;;;5008563;28;20022;-71
2022/08/18 02:48:33;;;;;;;5.47;4.43;;;;;;;;;;4994581;28;20049;-68
2022/08/18 02:51:02;;;;;;;5.78;4.75;;;;;;;;;;4995751;28;20085;-67
2022/08/18 02:53:28;;;;;;;8.00;4.68;;;;;;;;;;4992399;28;20554;-67
2022/08/18 02:55:56;;;;;;;5.75;4.50;;;;;;;;;;4995079;28;20077;-68
2022/08/18 02:58:22;;;;;;;8.15;4.97;;;;;;;;;;4994258;28;20038;-68
2022/08/18 03:00:48;;;;;;;6.63;4.63;;;;;;;;;;4994263;28;20468;-68
2022/08/18 03:03:14;;;;;;;9.05;4.40;;;;;;;;;;4993140;28;20457;-69
2022/08/18 03:05:40;;;;;;;6.47;4.70;;;;;;;;;;4994526;28;20073;-67
2022/08/18 03:08:09;;;;;;;7.07;4.80;;;;;;;;;;4995220;28;20107;-71
2022/08/18 03:10:35;;;;;;;8.20;4.57;;;;;;;;;;4995027;28;20045;-67
2022/08/18 03:13:01;;;;;;;7.15;4.70;;;;;;;;;;4994254;28;20038;-68
2022/08/18 03:15:28;;;;;;;7.63;4.63;;;;;;;;;;4995330;28;20030;-67
2022/08/18 03:17:54;;;;;;;6.88;4.70;;;;;;;;;;4995432;28;20041;-67
2022/08/18 03:20:20;;;;;;;7.68;5.00;;;;;;;;;;4994680;28;20042;-72
2022/08/18 03:22:46;;;;;;;8.88;4.82;;;;;;;;;;4993352;28;20035;-67
2022/08/18 03:25:12;;;;;;;8.77;5.25;;;;;;;;;;4994343;28;20113;-67
2022/08/18 03:27:38;;;;;;;6.63;5.03;;;;;;;;;;4994956;28;20031;-68
2022/08/18 03:30:04;;;;;;;7.60;4.88;;;;;;;;;;4995146;28;20033;-67
2022/08/18 03:32:30;;;;;;;5.93;4.78;;;;;;;;;;4992248;28;20041;-67
2022/08/18 03:34:56;;;;;;;8.20;5.00;;;;;;;;;;4993512;28;20026;-72
2022/08/18 03:37:22;;;;;;;7.97;5.25;;;;;;;;;;4994907;28;20495;-73
2022/08/18 03:39:50;;;;;;;7.15;5.32;;;;;;;;;;4991632;28;20040;-68
2022/08/18 03:42:16;;;;;;;7.00;4.75;;;;;;;;;;4993642;28;20034;-71
2022/08/18 03:44:43;;;;;;;6.97;4.78;;;;;;;;;;4993235;28;20146;-70
2022/08/18 03:47:10;;;;;;;7.53;5.25;;;;;;;;;;4993013;28;20503;-72
2022/08/18 03:49:37;;;;;;;10.70;5.07;;;;;;;;;;4993448;28;20027;-67
2022/08/18 03:52:04;;;;;;;6.70;4.95;;;;;;;;;;4994301;28;20392;-67
2022/08/18 03:54:30;;;;;;;5.70;4.53;;;;;;;;;;4991243;28;20022;-67
2022/08/18 03:56:57;;;;;;;8.73;5.20;;;;;;;;;;4994629;28;20030;-67
2022/08/18 03:59:24;;;;;;;7.43;5.13;;;;;;;;;;4994492;28;20026;-71
2022/08/18 04:01:53;;;;;;;11.52;5.50;;;;;;;;;;4990930;28;20029;-69
2022/08/18 04:04:22;;;;;;;14.65;6.07;;;;;;;;;;4991890;28;20101;-71
2022/08/18 04:06:52;;;;;;;11.07;5.90;;;;;;;;;;4994363;28;20388;-69
2022/08/18 04:09:19;;;;;;;8.55;5.20;;;;;;;;;;4994071;28;20042;-71
2022/08/18 04:11:46;;;;;;;11.23;5.45;;;;;;;;;;4994059;28;20409;-69
2022/08/18 04:14:13;;;;;;;16.25;5.88;;;;;;;;;;4993920;28;20377;-69
2022/08/18 04:16:39;;;;;;;23.20;6.60;;;;;;;;;;4992661;28;20041;-67
2022/08/18 04:19:06;;;;;;;18.27;5.55;;;;;;;;;;4992297;28;20027;-68
2022/08/18 04:21:33;;;;;;;23.52;6.43;;;;;;;;;;4991732;28;20503;-70
2022/08/18 04:24:03;;;;;;;16.67;5.45;;;;;;;;;;4985576;28;20111;-68
2022/08/18 04:26:30;;;;;;;12.63;5.35;;;;;;;;;;4980246;28;20465;-69
2022/08/18 04:28:58;;;;;;;12.60;5.22;;;;;;;;;;4979890;28;20026;-67
2022/08/18 04:31:25;;;;;;;11.40;5.07;;;;;;;;;;4990850;28;20061;-67
2022/08/18 04:33:51;;;;;;;14.32;5.18;;;;;;;;;;4993925;28;20030;-68
2022/08/18 04:36:17;;;;;;;10.48;5.30;;;;;;;;;;4987110;28;20022;-77
2022/08/18 04:38:43;;;;;;;17.35;5.38;;;;;;;;;;4992013;28;20028;-77
2022/08/18 04:41:12;;;;;;;16.73;5.35;;;;;;;;;;4992284;28;20037;-78
2022/08/18 04:43:39;;;;;;;50.53;7.15;;;;;;;;;;4981252;28;20403;-70
2022/08/18 04:46:05;;;;;;;61.08;6.95;;;;;;;;;;4991919;28;20037;-68
2022/08/18 04:48:38;;;;;;;43.15;6.57;;;;;;;;;;5006314;28;20519;-69
2022/08/18 04:51:10;;;;;;;19.85;5.50;;;;;;;;;;4998023;28;20494;-69
2022/08/18 04:53:45;;;;;;;24.77;6.05;;;;;;;;;;4994154;28;20062;-68
2022/08/18 04:56:28;;;;;;;28.02;6.85;;;;;;;;;;5003810;28;20029;-69
2022/08/18 04:59:05;;;;;;;19.20;5.95;;;;;;;;;;4995282;28;20093;-68
2022/08/18 05:01:33;;;;;;;37.53;8.32;;;;;;;;;;4992971;28;20022;-72
2022/08/18 05:04:00;;;;;;;30.98;11.65;;;;;;;;;;4991090;28;20150;-71
2022/08/18 05:06:26;;;;;;;28.10;13.13;;;;;;;;;;4993483;28;20110;-72
2022/08/18 05:08:53;;;;;;;23.23;10.18;;;;;;;;;;4993150;28;20026;-72
2022/08/18 05:11:23;;;;;;;24.95;10.00;;;;;;;;;;4991959;28;20038;-72
2022/08/18 05:13:51;;;;;;;20.25;8.50;;;;;;;;;;4987479;28;20027;-70
2022/08/18 05:16:18;;;;;;;18.58;7.55;;;;;;;;;;4967330;28;20125;-68
2022/08/18 05:18:44;;;;;;;16.95;7.05;;;;;;;;;;4992574;28;20030;-68
2022/08/18 05:21:12;;;;;;;14.60;7.32;;;;;;;;;;4991655;28;20031;-70
2022/08/18 05:23:38;;;;;;;14.13;6.35;;;;;;;;;;4993347;28;20058;-71
2022/08/18 05:26:04;;;;;;;15.82;7.15;;;;;;;;;;4993501;28;20026;-69
2022/08/18 05:28:31;;;;;;;33.60;8.25;;;;;;;;;;4996670;28;20046;-72
2022/08/18 05:30:57;;;;;;;26.65;9.40;;;;;;;;;;4991983;28;20022;-71
2022/08/18 05:33:24;;;;;;;20.48;7.10;;;;;;;;;;4995249;28;20041;-69
2022/08/18 05:35:54;;;;;;;16.63;6.53;;;;;;;;;;4993980;28;20050;-69
2022/08/18 05:38:40;;;;;;;20.60;6.72;;;;;;;;;;4997561;28;20041;-71
2022/08/18 05:41:08;;;;;;;11.00;6.10;;;;;;;;;;4994015;28;20034;-70
2022/08/18 05:43:36;;;;;;;12.82;6.35;;;;;;;;;;4996897;28;20380;-70
2022/08/18 05:46:04;;;;;;;15.98;6.30;;;;;;;;;;4991056;28;20026;-71
2022/08/18 05:48:30;;;;;;;10.27;5.78;;;;;;;;;;4991829;28;20042;-73
2022/08/18 05:50:58;;;;;;;9.02;5.25;;;;;;;;;;4989938;28;20558;-76
2022/08/18 05:56:45;;;;;;;33.78;6.53;;;;;;;;;;4991638;28;20035;-74
2022/08/18 05:58:59;;;;;;;15.85;5.68;;;;;;;;;;4991109;28;20503;-75
2022/08/18 06:01:45;;;;;;;9.93;5.38;;;;;;;;;;4975732;28;20400;-74
2022/08/18 06:04:23;;;;;;;10.52;5.35;;;;;;;;;;4979608;28;20022;-74
2022/08/18 06:06:50;;;;;;;9.90;5.85;;;;;;;;;;4994634;28;20060;-70
2022/08/18 06:09:25;;;;;;;10.55;5.63;;;;;;;;;;4995985;28;20034;-70
2022/08/18 06:11:54;;;;;;;12.13;5.70;;;;;;;;;;4994397;28;20078;-75
2022/08/18 06:14:21;;;;;;;9.10;6.53;;;;;;;;;;4977066;28;20030;-71
2022/08/18 06:16:47;;;;;;;13.07;6.07;;;;;;;;;;4992619;28;20076;-70
2022/08/18 06:19:33;;;;;;;6.97;4.68;;;;;;;;;;4991996;28;20041;-77
2022/08/18 06:22:18;;;;;;;11.82;5.68;;;;;;;;;;4993843;28;20110;-74
2022/08/18 06:25:02;;;;;;;13.45;5.47;;;;;;;;;;4995441;28;20109;-76
2022/08/18 06:27:50;;;;;;;13.55;5.82;;;;;;;;;;4992753;28;20065;-78
2022/08/18 06:30:22;;;;;;;11.57;5.40;;;;;;;;;;4992136;28;20039;-70
2022/08/18 06:33:12;;;;;;;9.48;5.68;;;;;;;;;;4995247;28;20018;-72
2022/08/18 06:35:49;;;;;;;13.20;6.05;;;;;;;;;;4994264;28;20504;-75
2022/08/18 06:38:37;;;;;;;7.93;5.35;;;;;;;;;;4993725;28;20031;-71
2022/08/18 06:41:03;;;;;;;19.23;6.43;;;;;;;;;;4993681;28;20034;-73
2022/08/18 06:43:31;;;;;;;19.70;6.18;;;;;;;;;;4993908;28;20145;-83
2022/08/18 06:45:57;;;;;;;11.48;6.32;;;;;;;;;;4994687;28;20484;-76
2022/08/18 06:48:23;;;;;;;11.38;5.90;;;;;;;;;;4990996;28;20062;-77
2022/08/18 06:50:49;;;;;;;23.17;6.30;;;;;;;;;;4979588;28;20092;-77
2022/08/18 06:53:15;;;;;;;9.45;5.60;;;;;;;;;;4995154;28;20101;-79
2022/08/18 06:55:43;;;;;;;44.78;8.00;;;;;;;;;;4989993;28;20034;-77
2022/08/18 06:58:12;;;;;;;23.08;7.53;;;;;;;;;;4990109;28;20030;-74
2022/08/18 07:00:41;;;;;;;24.17;8.05;;;;;;;;;;4993022;28;20396;-78
2022/08/18 07:03:11;;;;;;;13.48;6.38;;;;;;;;;;4993051;28;20085;-78
2022/08/18 07:05:39;;;;;;;18.02;6.03;;;;;;;;;;4991844;28;20034;-79
2022/08/18 07:08:11;;;;;;;19.05;6.50;;;;;;;;;;4978959;28;20095;-77
2022/08/18 07:10:39;;;;;;;18.30;5.50;;;;;;;;;;4993585;28;20026;-76
2022/08/18 07:13:28;;;;;;;11.82;6.10;;;;;;;;;;4977907;28;20081;-82
2022/08/18 07:15:55;;;;;;;13.10;5.72;;;;;;;;;;4933013;29;20114;-82
2022/08/18 07:18:23;;;;;;;6.18;5.30;;;;;;;;;;4934790;29;20054;-81
2022/08/18 07:20:53;;;;;;;7.95;4.88;;;;;;;;;;4932296;29;20040;-82
2022/08/18 07:23:37;;;;;;;12.60;5.47;;;;;;;;;;4933683;29;20053;-82
2022/08/18 07:26:07;;;;;;;15.57;6.82;;;;;;;;;;4916929;29;20088;-77
2022/08/18 07:28:35;;;;;;;44.70;7.45;;;;;;;;;;4929434;29;20040;-75
2022/08/18 07:31:31;;;;;;;58.97;7.38;;;;;;;;;;4932856;29;20023;-75
2022/08/18 07:34:00;;;;;;;8.48;5.28;;;;;;;;;;4914981;29;20549;-75
2022/08/18 07:36:30;;;;;;;6.72;5.18;;;;;;;;;;4932553;29;20054;-83
2022/08/18 07:38:59;;;;;;;15.25;5.43;;;;;;;;;;4933251;29;20123;-78
2022/08/18 07:41:34;;;;;;;7.20;4.88;;;;;;;;;;4929377;29;20042;-76
2022/08/18 07:44:03;;;;;;;14.20;4.95;;;;;;;;;;4934744;29;20027;-76
2022/08/18 07:46:35;;;;;;;7.65;4.50;;;;;;;;;;4925853;29;20426;-78
2022/08/18 07:49:01;;;;;;;7.15;4.43;;;;;;;;;;4932074;29;20043;-79
2022/08/18 07:51:42;;;;;;;7.97;4.30;;;;;;;;;;4944132;29;20043;-77
2022/08/18 07:54:27;;;;;;;9.02;4.72;;;;;;;;;;4990908;28;20034;-76
2022/08/18 07:57:03;;;;;;;23.92;5.20;;;;;;;;;;4983721;28;20010;-76
2022/08/18 07:59:39;;;;;;;10.13;4.20;;;;;;;;;;4994665;28;20030;-76
2022/08/18 08:02:20;;;;;;;6.10;4.15;;;;;;;;;;4993733;28;20033;-76
2022/08/18 08:04:52;;;;;;;8.40;5.07;;;;;;;;;;4994086;28;20157;-78
2022/08/18 08:07:39;;;;;;;8.10;4.57;;;;;;;;;;4993931;28;20410;-75
2022/08/18 08:10:17;;;;;;;11.75;4.68;;;;;;;;;;4993240;28;20022;-77
2022/08/18 08:12:56;;;;;;;14.40;4.97;;;;;;;;;;4993532;28;20022;-78
2022/08/18 08:15:41;;;;;;;10.48;4.57;;;;;;;;;;4993730;28;20398;-79
2022/08/18 08:18:10;;;;;;;6.78;4.28;;;;;;;;;;4989266;28;20089;-76
2022/08/18 08:20:39;;;;;;;11.77;4.82;;;;;;;;;;4991863;28;20105;-79
2022/08/18 08:23:16;;;;;;;10.30;4.20;;;;;;;;;;4991774;28;20027;-76
2022/08/18 08:25:45;;;;;;;8.65;4.28;;;;;;;;;;4993635;28;20049;-76
2022/08/18 08:28:12;;;;;;;6.47;4.30;;;;;;;;;;4993567;28;20038;-79
2022/08/18 08:30:46;;;;;;;12.30;5.03;;;;;;;;;;4992745;28;20026;-80
2022/08/18 08:33:24;;;;;;;18.08;5.28;;;;;;;;;;4992303;28;20041;-76
2022/08/18 08:35:53;;;;;;;10.07;4.43;;;;;;;;;;4990950;28;20031;-76
2022/08/18 08:38:36;;;;;;;10.85;5.10;;;;;;;;;;4991633;28;20555;-75
2022/08/18 08:41:08;;;;;;;9.07;4.88;;;;;;;;;;4975795;28;20388;-75
2022/08/18 08:43:37;;;;;;;7.57;4.50;;;;;;;;;;4993365;28;20081;-76
2022/08/18 08:46:09;;;;;;;9.10;4.47;;;;;;;;;;4993259;28;20065;-75
2022/08/18 08:48:37;;;;;;;7.50;4.70;;;;;;;;;;4988536;28;20069;-75
2022/08/18 08:51:13;;;;;;;9.90;4.40;;;;;;;;;;4990282;28;20103;-76
2022/08/18 08:53:45;;;;;;;8.65;4.50;;;;;;;;;;4991396;28;20038;-76
2022/08/18 08:56:16;;;;;;;11.68;4.55;;;;;;;;;;4987096;28;20030;-77
2022/08/18 08:58:42;;;;;;;7.13;3.97;;;;;;;;;;4993840;28;20476;-75
2022/08/18 09:01:22;;;;;;;9.77;4.10;;;;;;;;;;4991239;28;20046;-75
2022/08/18 09:04:20;;;;;;;7.70;3.88;;;;;;;;;;4994151;28;20038;-79
2022/08/18 09:06:51;;;;;;;7.88;4.10;;;;;;;;;;4894067;29;20096;-79
2022/08/18 09:09:24;;;;;;;8.70;3.92;;;;;;;;;;4878179;29;20044;-79
2022/08/18 09:12:11;;;;;;;6.65;3.75;;;;;;;;;;4891871;29;20055;-78
2022/08/18 09:14:56;;;;;;;18.83;4.57;;;;;;;;;;4894505;29;20032;-80
2022/08/18 09:17:34;;;;;;;7.32;3.70;;;;;;;;;;4899981;29;20115;-80
2022/08/18 09:20:06;;;;;;;6.00;3.47;;;;;;;;;;4891701;29;20059;-79
2022/08/18 09:22:38;;;;;;;9.10;3.70;;;;;;;;;;4895119;29;20032;-78
2022/08/18 09:25:09;;;;;;;7.60;3.93;;;;;;;;;;4894138;29;20062;-78
2022/08/18 09:27:42;;;;;;;7.60;4.10;;;;;;;;;;4904258;29;20047;-81
2022/08/18 09:30:29;;;;;;;8.27;4.07;;;;;;;;;;4897758;29;20602;-69
2022/08/18 09:33:00;;;;;;;6.63;3.75;;;;;;;;;;4895361;29;20111;-75
2022/08/18 09:35:29;;;;;;;8.93;3.67;;;;;;;;;;4905259;29;20044;-78
2022/08/18 09:43:51;;;;;;;16.08;4.18;;;;;;;;;;4989727;28;20053;-80
2022/08/18 09:46:37;;;;;;;13.93;4.18;;;;;;;;;;4991154;28;20037;-82
2022/08/18 09:49:22;;;;;;;7.00;3.45;;;;;;;;;;4981987;28;20447;-81
2022/08/18 09:51:49;;;;;;;16.33;5.35;;;;;;;;;;4995949;28;20101;-79
2022/08/18 09:54:26;;;;;;;10.55;3.70;;;;;;;;;;4994025;28;20492;-79
2022/08/18 09:57:15;;;;;;;7.70;4.20;;;;;;;;;;4992508;28;20066;-81
2022/08/18 09:59:44;;;;;;;5.05;3.22;;;;;;;;;;4993247;28;20463;-80
2022/08/18 10:02:28;;;;;;;5.38;3.50;;;;;;;;;;4995236;28;20089;-81
2022/08/18 10:05:13;;;;;;;15.07;4.40;;;;;;;;;;4975887;28;20373;-81
2022/08/18 10:07:41;;;;;;;10.70;4.47;;;;;;;;;;4993955;28;20492;-74
2022/08/18 10:10:08;;;;;;;39.05;9.00;;;;;;;;;;4995166;28;20014;-71
2022/08/18 10:12:49;;;;;;;24.70;6.65;;;;;;;;;;4995030;28;20031;-71
2022/08/18 10:15:22;;;;;;;122.15;18.35;;;;;;;;;;4992011;28;20491;-71
2022/08/18 10:18:02;;;;;;;13.93;4.93;;;;;;;;;;4994616;28;20510;-81
2022/08/18 10:20:28;;;;;;;11.00;5.05;;;;;;;;;;4993081;28;20046;-77
2022/08/18 10:22:55;;;;;;;7.75;3.42;;;;;;;;;;4997543;28;20019;-80
2022/08/18 10:25:45;;;;;;;11.30;4.10;;;;;;;;;;4978673;28;20111;-74
2022/08/18 10:28:33;;;;;;;18.52;5.22;;;;;;;;;;4993249;28;20096;-74
2022/08/18 10:31:01;;;;;;;46.30;9.48;;;;;;;;;;4991880;28;20022;-79
2022/08/18 10:33:50;;;;;;;70.20;12.32;;;;;;;;;;4989643;28;20041;-82
2022/08/18 10:36:32;;;;;;;41.22;8.55;;;;;;;;;;4960462;28;20043;-74
2022/08/18 10:38:59;;;;;;;94.63;14.88;;;;;;;;;;4951153;28;20043;-74
2022/08/18 10:41:28;;;;;;;32.05;6.68;;;;;;;;;;4952398;28;20066;-78
2022/08/18 10:43:55;;;;;;;15.15;4.55;;;;;;;;;;4950579;28;20024;-76
2022/08/18 10:46:23;;;;;;;7.53;3.60;;;;;;;;;;4961206;28;20046;-78
2022/08/18 10:48:58;;;;;;;6.15;3.55;;;;;;;;;;4953581;28;20519;-78
2022/08/18 10:51:36;;;;;;;5.47;3.10;;;;;;;;;;4956485;28;20563;-76
2022/08/18 10:54:04;;;;;;;14.98;4.82;;;;;;;;;;4952865;28;20434;-77
2022/08/18 10:56:40;;;;;;;22.52;5.65;;;;;;;;;;4953510;28;20031;-74
2022/08/18 10:59:12;;;;;;;18.33;4.63;;;;;;;;;;4937735;29;20512;-74
2022/08/18 11:01:50;;;;;;;10.35;4.28;;;;;;;;;;4956960;28;20034;-74
2022/08/18 11:04:35;;;;;;;15.80;5.32;;;;;;;;;;4942694;28;20036;-74
2022/08/18 11:07:06;;;;;;;14.82;6.95;;;;;;;;;;4949999;28;20039;-79
2022/08/18 11:09:32;;;;;;;7.95;4.93;;;;;;;;;;4953141;28;20076;-79
2022/08/18 11:12:00;;;;;;;8.48;5.40;;;;;;;;;;4950511;28;20035;-79
2022/08/18 11:14:26;;;;;;;10.73;4.53;;;;;;;;;;4974478;28;20034;-78
2022/08/18 11:17:03;;;;;;;5.80;3.60;;;;;;;;;;4991145;28;20021;-76
2022/08/18 11:19:35;;;;;;;11.63;4.30;;;;;;;;;;4992039;28;20037;-76
2022/08/18 11:22:01;;;;;;;5.00;3.80;;;;;;;;;;4993829;28;20101;-76
2022/08/18 11:24:30;;;;;;;11.23;4.00;;;;;;;;;;4990160;28;20033;-79
2022/08/18 11:27:04;;;;;;;8.15;3.72;;;;;;;;;;4994056;28;20417;-79
2022/08/18 11:29:32;;;;;;;7.90;3.80;;;;;;;;;;4993005;28;20035;-80
2022/08/18 11:32:04;;;;;;;6.93;3.67;;;;;;;;;;4991878;28;20046;-79
2022/08/18 11:34:50;;;;;;;9.25;4.35;;;;;;;;;;4990909;28;20026;-76
2022/08/18 11:37:50;;;;;;;5.97;3.67;;;;;;;;;;4988160;28;20085;-76
2022/08/18 11:40:19;;;;;;;11.48;4.30;;;;;;;;;;4876370;29;20041;-75
2022/08/18 11:42:54;;;;;;;9.30;4.03;;;;;;;;;;4879226;29;20049;-79
2022/08/18 11:45:21;;;;;;;9.23;3.60;;;;;;;;;;4877435;29;20089;-79
2022/08/18 11:48:06;;;;;;;13.75;3.83;;;;;;;;;;4876112;29;20064;-80
2022/08/18 11:50:33;;;;;;;6.68;3.45;;;;;;;;;;4866213;29;20048;-78
2022/08/18 11:53:13;;;;;;;8.20;3.83;;;;;;;;;;4869667;29;20028;-80
2022/08/18 11:55:39;;;;;;;9.77;3.38;;;;;;;;;;4877349;29;20120;-78
2022/08/18 11:58:05;;;;;;;5.25;3.40;;;;;;;;;;4879432;29;20029;-77
2022/08/18 12:00:37;;;;;;;9.32;3.33;;;;;;;;;;4887680;29;20108;-82
2022/08/18 12:03:05;;;;;;;7.72;3.88;;;;;;;;;;4872977;29;20045;-77
2022/08/18 12:05:41;;;;;;;10.13;3.70;;;;;;;;;;4875090;29;20033;-78
2022/08/18 12:08:16;;;;;;;13.77;4.00;;;;;;;;;;4874217;29;20131;-79
2022/08/18 12:10:42;;;;;;;7.57;3.60;;;;;;;;;;4871604;29;20030;-79
2022/08/18 12:13:08;;;;;;;8.82;3.70;;;;;;;;;;4871404;29;20105;-79
2022/08/18 12:15:35;;;;;;;7.32;4.00;;;;;;;;;;4922035;28;20560;-80
2022/08/18 12:18:02;;;;;;;6.13;3.60;;;;;;;;;;4992113;28;20034;-82
2022/08/18 12:20:28;;;;;;;6.32;3.60;;;;;;;;;;4991880;28;20113;-82
2022/08/18 12:22:56;;;;;;;10.68;3.95;;;;;;;;;;4974682;28;20097;-75
2022/08/18 12:25:22;;;;;;;8.18;3.78;;;;;;;;;;4990638;28;20030;-74
2022/08/18 12:27:48;;;;;;;9.15;3.53;;;;;;;;;;4992023;28;20251;-76
2022/08/18 12:30:15;;;;;;;10.15;3.50;;;;;;;;;;4994335;28;20034;-78
2022/08/18 12:32:41;;;;;;;9.13;3.78;;;;;;;;;;4992436;28;20018;-75
2022/08/18 12:35:10;;;;;;;11.63;3.97;;;;;;;;;;4992593;28;20026;-76
2022/08/18 12:37:37;;;;;;;10.88;3.88;;;;;;;;;;4989618;28;20045;-71
2022/08/18 12:40:03;;;;;;;6.28;3.83;;;;;;;;;;4989867;28;20023;-73
2022/08/18 12:42:29;;;;;;;9.25;4.40;;;;;;;;;;4990060;28;20464;-72
2022/08/18 12:44:56;;;;;;;7.15;3.80;;;;;;;;;;4992428;28;20465;-73
2022/08/18 12:47:24;;;;;;;8.45;3.80;;;;;;;;;;4991085;28;20062;-73
2022/08/18 12:49:50;;;;;;;9.75;3.60;;;;;;;;;;4992120;28;20026;-73
2022/08/18 12:52:18;;;;;;;9.50;3.80;;;;;;;;;;4992974;28;20030;-72
2022/08/18 12:54:45;;;;;;;10.82;3.88;;;;;;;;;;4993328;28;20093;-73
2022/08/18 12:57:19;;;;;;;9.27;4.20;;;;;;;;;;4992792;28;20027;-72
2022/08/18 12:59:45;;;;;;;8.57;3.40;;;;;;;;;;4993265;28;20554;-74
2022/08/18 13:02:12;;;;;;;11.25;3.60;;;;;;;;;;4989304;28;20049;-73
2022/08/18 13:04:38;;;;;;;10.60;4.93;;;;;;;;;;4992589;28;20039;-73
2022/08/18 13:07:06;;;;;;;11.00;4.18;;;;;;;;;;4987653;28;20105;-73
2022/08/18 13:09:34;;;;;;;9.90;4.22;;;;;;;;;;4991790;28;20096;-70
2022/08/18 13:12:00;;;;;;;9.27;5.25;;;;;;;;;;4989461;28;20023;-70
2022/08/18 13:14:27;;;;;;;7.32;4.32;;;;;;;;;;4990635;28;20163;-73
2022/08/18 13:16:53;;;;;;;12.13;4.20;;;;;;;;;;4990726;28;20027;-84
2022/08/18 13:19:19;;;;;;;17.15;4.70;;;;;;;;;;4988847;28;20041;-73
2022/08/18 13:21:45;;;;;;;6.90;3.90;;;;;;;;;;4989528;28;20518;-73
2022/08/18 13:24:11;;;;;;;9.18;3.80;;;;;;;;;;4992797;28;20491;-77
2022/08/18 13:26:44;;;;;;;11.55;4.20;;;;;;;;;;4992894;28;20384;-75
2022/08/18 13:29:10;;;;;;;12.32;4.40;;;;;;;;;;4988225;28;20042;-77
2022/08/18 13:31:36;;;;;;;9.68;4.10;;;;;;;;;;4991959;28;20117;-77
2022/08/18 13:34:03;;;;;;;8.98;3.67;;;;;;;;;;4993337;28;20144;-74
2022/08/18 13:36:43;;;;;;;10.80;4.53;;;;;;;;;;4993212;28;20480;-73
2022/08/18 13:39:13;;;;;;;8.98;4.00;;;;;;;;;;4992219;28;20118;-75
2022/08/18 13:41:42;;;;;;;6.82;3.60;;;;;;;;;;4993220;28;20076;-73
2022/08/18 13:44:09;;;;;;;6.50;3.72;;;;;;;;;;4993127;28;20041;-76
2022/08/18 13:46:44;;;;;;;8.40;3.50;;;;;;;;;;4991862;28;20397;-77
2022/08/18 13:49:10;;;;;;;9.07;3.45;;;;;;;;;;4990289;28;20042;-74
2022/08/18 13:51:36;;;;;;;10.10;4.20;;;;;;;;;;4989936;28;20026;-76
2022/08/18 13:54:02;;;;;;;7.95;3.88;;;;;;;;;;4993428;28;20038;-76
2022/08/18 13:56:28;;;;;;;8.23;3.55;;;;;;;;;;4993038;28;20027;-75
2022/08/18 13:58:54;;;;;;;8.52;3.97;;;;;;;;;;4993143;28;20038;-77
2022/08/18 14:01:20;;;;;;;10.95;3.70;;;;;;;;;;4992590;28;20034;-77
2022/08/18 14:03:47;;;;;;;8.50;3.78;;;;;;;;;;4992869;28;20022;-77
2022/08/18 14:06:13;;;;;;;7.60;3.70;;;;;;;;;;4993062;28;20034;-76
2022/08/18 14:08:39;;;;;;;11.65;4.57;;;;;;;;;;4992963;28;20089;-72
2022/08/18 14:11:05;;;;;;;6.38;3.67;;;;;;;;;;4992943;28;20420;-77
2022/08/18 14:13:32;;;;;;;8.98;3.95;;;;;;;;;;4992640;28;20365;-77
2022/08/18 14:16:00;;;;;;;9.18;4.03;;;;;;;;;;4993051;28;20022;-77
2022/08/18 14:18:26;;;;;;;9.80;4.05;;;;;;;;;;4996199;28;20026;-77
2022/08/18 14:29:06;;;;;;;8.45;3.97;;;;;;;;;;4983955;28;20048;-76
2022/08/18 14:31:32;;;;;;;7.45;3.95;;;;;;;;;;4996471;28;20093;-78
2022/08/18 14:33:58;;;;;;;8.18;3.90;;;;;;;;;;4995656;28;20030;-76
2022/08/18 14:36:25;;;;;;;7.03;3.97;;;;;;;;;;4996222;28;20024;-76
2022/08/18 14:38:51;;;;;;;7.55;3.60;;;;;;;;;;4995841;28;20022;-78
2022/08/18 14:41:17;;;;;;;8.75;4.07;;;;;;;;;;4995623;28;20525;-77
2022/08/18 14:43:44;;;;;;;8.07;3.88;;;;;;;;;;4991654;28;20378;-74
2022/08/18 14:46:11;;;;;;;10.88;4.25;;;;;;;;;;4995311;28;20046;-74
2022/08/18 14:48:38;;;;;;;9.40;4.10;;;;;;;;;;4976043;28;20043;-74
2022/08/18 14:51:05;;;;;;;8.23;4.00;;;;;;;;;;4976634;28;20023;-75
2022/08/18 14:53:33;;;;;;;7.18;4.18;;;;;;;;;;4976575;28;20023;-77
2022/08/18 14:55:59;;;;;;;7.60;4.05;;;;;;;;;;4975915;28;20027;-78
2022/08/18 14:58:27;;;;;;;8.07;4.03;;;;;;;;;;4976246;28;20033;-77
2022/08/18 15:00:58;;;;;;;8.85;4.30;;;;;;;;;;4968718;28;20014;-77
2022/08/18 15:03:25;;;;;;;7.57;4.25;;;;;;;;;;4976322;28;20023;-77
2022/08/18 15:05:51;;;;;;;8.05;4.60;;;;;;;;;;4975752;28;20027;-75
2022/08/18 15:08:18;;;;;;;9.40;4.18;;;;;;;;;;4976055;28;20113;-74
2022/08/18 15:10:44;;;;;;;6.65;3.90;;;;;;;;;;4976438;28;20481;-75
2022/08/18 15:13:10;;;;;;;8.38;4.03;;;;;;;;;;4976026;28;20022;-74
2022/08/18 15:15:36;;;;;;;6.93;4.07;;;;;;;;;;4975906;28;20027;-76
2022/08/18 15:18:03;;;;;;;8.48;4.13;;;;;;;;;;4975616;28;20026;-75
2022/08/18 15:20:29;;;;;;;9.25;4.00;;;;;;;;;;4976051;28;20483;-76